Stillwater, Canada
Current Conditions -  °F | °C
As of 4:00 PM on Thursday 27 Nov 2014 (Local Time) from CYPW Reporting Station
Broken Clouds Broken Clouds  
Wind Chill: 52°   Ceiling: 22000
Heat Index: 52°   Visibility: 20mi
Dew Point: 50°   Wind: 12mph
Humidity: 94%   Direction: 120°ESE
Pressure: 29.56"   Gusts: NA
Location:  49.77°N, 124.3°W
Report Text: CYPW 280000Z 12010KT 20SM FEW008 FEW020 SCT040 BKN220 11/10 A2956 RMK SF1SC1SC2CI1 SLP010 DENSITY ALT 500FT
Loading
Personal Weather Stations






























Interactive Weather Map New forecast layout! Learn more

10-Day Weather Forecast

Advertisements
Track Severe Weather on mobile